This is the latest recevied weather packets stored in our database for station/object N3TCR-13. If no packets are shown the sender has not sent any weather packets the latest 10 day(s).
| Time | Temp. | Humidity | Pressure | Rain* | Wind** | Luminosity | Snow |
|---|---|---|---|---|---|---|---|
| 1777934717 | 22.78° C | 28% | 993.3 hPa | 0 mm | - | - | - |
| 1777931117 | 23.33° C | 27% | 993.3 hPa | 0 mm | - | - | - |
| 1777924837 | 23.89° C | 28% | 994.1 hPa | 0 mm | - | - | - |
| 1777921217 | 23.33° C | 29% | 995.1 hPa | 0 mm | - | - | - |
| 1777918537 | 22.78° C | 30% | 995.7 hPa | 0 mm | - | - | - |
| 1777915817 | 22.22° C | 31% | 996.1 hPa | 0 mm | - | - | - |
| 1777909520 | 20.56° C | 34% | 997.2 hPa | 0 mm | - | - | - |
| 1777908618 | 20.56° C | 33% | 997.3 hPa | 0 mm | - | - | - |
| 1777902317 | 16.67° C | 41% | 997.7 hPa | 0 mm | - | - | - |
| 1777901416 | 16.11° C | 42% | 997.8 hPa | 0 mm | - | - | - |
| 1777897837 | 13.89° C | 52% | 998.2 hPa | 0 mm | - | - | - |
| 1777894217 | 10° C | 63% | 998.5 hPa | 0 mm | - | - | - |
| 1777893337 | 10° C | 62% | 998.5 hPa | 0 mm | - | - | - |
| 1777892417 | 10° C | 62% | 998.5 hPa | 0 mm | - | - | - |
| 1777891517 | 8.89° C | 62% | 998.4 hPa | 0 mm | - | - | - |
| 1777889717 | 9.44° C | 60% | 998.4 hPa | 0 mm | - | - | - |
| 1777887058 | 10° C | 55% | 998.6 hPa | 0 mm | - | - | - |
| 1777883416 | 10.56° C | 51% | 998.8 hPa | 0 mm | - | - | - |
| 1777880717 | 9.44° C | 52% | 998.9 hPa | 0 mm | - | - | - |
| 1777871717 | 9.44° C | 53% | 999.4 hPa | 0 mm | - | - | - |
| 1777869018 | 9.44° C | 53% | 999.3 hPa | 0 mm | - | - | - |
| 1777866316 | 7.78° C | 59% | 998.9 hPa | 0 mm | - | - | - |
| 1777860921 | 9.44° C | 53% | 998.5 hPa | 0 mm | - | - | - |
| 1777857319 | 10° C | 52% | 998.2 hPa | 0 mm | - | - | - |
| 1777845617 | 15.56° C | 35% | 997.1 hPa | 0 mm | - | - | - |
* Rain latest hour (hover to see other rain measurements)
** Current wind speed in m/s (hover to see current wind gust speed)